sensor_id;sensor_type;location;lat;lon;timestamp;P1;durP1;ratioP1;P2;durP2;ratioP2
40150;SDS011;25866;52.420;10.640;2023-09-19T00:01:39;3.22;;;1.00;;
40150;SDS011;25866;52.420;10.640;2023-09-19T00:04:07;1.42;;;0.68;;
40150;SDS011;25866;52.420;10.640;2023-09-19T00:06:36;1.17;;;0.60;;
40150;SDS011;25866;52.420;10.640;2023-09-19T00:09:02;1.50;;;0.73;;
40150;SDS011;25866;52.420;10.640;2023-09-19T00:11:28;1.92;;;0.80;;
40150;SDS011;25866;52.420;10.640;2023-09-19T00:13:54;2.20;;;0.70;;
40150;SDS011;25866;52.420;10.640;2023-09-19T00:16:20;1.67;;;0.70;;
40150;SDS011;25866;52.420;10.640;2023-09-19T00:18:46;2.95;;;0.63;;
40150;SDS011;25866;52.420;10.640;2023-09-19T00:21:14;2.65;;;0.70;;
40150;SDS011;25866;52.420;10.640;2023-09-19T00:23:40;2.85;;;0.70;;
40150;SDS011;25866;52.420;10.640;2023-09-19T00:26:07;1.60;;;0.60;;
40150;SDS011;25866;52.420;10.640;2023-09-19T00:28:33;1.85;;;0.75;;
40150;SDS011;25866;52.420;10.640;2023-09-19T00:30:58;2.10;;;0.70;;
40150;SDS011;25866;52.420;10.640;2023-09-19T00:33:27;2.55;;;0.80;;
40150;SDS011;25866;52.420;10.640;2023-09-19T00:35:54;2.92;;;0.60;;
40150;SDS011;25866;52.420;10.640;2023-09-19T00:38:22;1.30;;;0.77;;
40150;SDS011;25866;52.420;10.640;2023-09-19T00:40:52;1.05;;;0.70;;
40150;SDS011;25866;52.420;10.640;2023-09-19T00:43:22;3.35;;;0.68;;
40150;SDS011;25866;52.420;10.640;2023-09-19T00:45:49;1.30;;;0.47;;
40150;SDS011;25866;52.420;10.640;2023-09-19T00:48:18;2.50;;;0.60;;
40150;SDS011;25866;52.420;10.640;2023-09-19T00:50:45;1.17;;;0.60;;
40150;SDS011;25866;52.420;10.640;2023-09-19T00:53:13;1.90;;;0.70;;
40150;SDS011;25866;52.420;10.640;2023-09-19T00:55:44;1.88;;;0.80;;
40150;SDS011;25866;52.420;10.640;2023-09-19T00:58:11;0.95;;;0.80;;
40150;SDS011;25866;52.420;10.640;2023-09-19T01:00:37;0.65;;;0.57;;
40150;SDS011;25866;52.420;10.640;2023-09-19T01:03:05;6.90;;;0.90;;
40150;SDS011;25866;52.420;10.640;2023-09-19T01:05:31;1.25;;;0.70;;
40150;SDS011;25866;52.420;10.640;2023-09-19T01:07:59;1.92;;;0.90;;
40150;SDS011;25866;52.420;10.640;2023-09-19T01:10:24;1.17;;;0.60;;
40150;SDS011;25866;52.420;10.640;2023-09-19T01:18:08;1.60;;;0.75;;
40150;SDS011;25866;52.420;10.640;2023-09-19T01:21:00;2.20;;;0.90;;
40150;SDS011;25866;52.420;10.640;2023-09-19T01:29:38;1.50;;;0.80;;
40150;SDS011;25866;52.420;10.640;2023-09-19T01:32:09;1.88;;;0.90;;
40150;SDS011;25866;52.420;10.640;2023-09-19T01:34:45;3.55;;;0.90;;
40150;SDS011;25866;52.420;10.640;2023-09-19T01:37:12;1.48;;;0.80;;
40150;SDS011;25866;52.420;10.640;2023-09-19T01:39:39;3.00;;;1.00;;
40150;SDS011;25866;52.420;10.640;2023-09-19T01:47:23;3.75;;;1.35;;
40150;SDS011;25866;52.420;10.640;2023-09-19T01:50:02;3.83;;;1.40;;
40150;SDS011;25866;52.420;10.640;2023-09-19T01:52:39;2.30;;;1.10;;
40150;SDS011;25866;52.420;10.640;2023-09-19T01:55:13;2.35;;;1.40;;
40150;SDS011;25866;52.420;10.640;2023-09-19T02:00:20;4.13;;;1.40;;
40150;SDS011;25866;52.420;10.640;2023-09-19T02:02:48;2.75;;;1.45;;
40150;SDS011;25866;52.420;10.640;2023-09-19T02:05:24;3.90;;;1.40;;
40150;SDS011;25866;52.420;10.640;2023-09-19T02:07:53;4.47;;;1.60;;
40150;SDS011;25866;52.420;10.640;2023-09-19T02:10:19;5.07;;;2.13;;
40150;SDS011;25866;52.420;10.640;2023-09-19T02:12:45;1.63;;;1.33;;
40150;SDS011;25866;52.420;10.640;2023-09-19T02:15:12;2.30;;;1.40;;
40150;SDS011;25866;52.420;10.640;2023-09-19T02:17:40;2.33;;;1.15;;
40150;SDS011;25866;52.420;10.640;2023-09-19T02:20:07;6.05;;;1.50;;
40150;SDS011;25866;52.420;10.640;2023-09-19T02:22:35;3.38;;;1.88;;
40150;SDS011;25866;52.420;10.640;2023-09-19T02:25:01;3.40;;;1.30;;
40150;SDS011;25866;52.420;10.640;2023-09-19T02:27:30;2.22;;;1.52;;
40150;SDS011;25866;52.420;10.640;2023-09-19T02:29:58;2.70;;;1.45;;
40150;SDS011;25866;52.420;10.640;2023-09-19T02:32:24;5.35;;;1.70;;
40150;SDS011;25866;52.420;10.640;2023-09-19T02:34:49;2.83;;;1.50;;
40150;SDS011;25866;52.420;10.640;2023-09-19T02:37:17;2.13;;;1.23;;
40150;SDS011;25866;52.420;10.640;2023-09-19T02:39:45;3.42;;;1.70;;
40150;SDS011;25866;52.420;10.640;2023-09-19T02:42:11;3.97;;;1.80;;
40150;SDS011;25866;52.420;10.640;2023-09-19T02:44:37;3.33;;;1.77;;
40150;SDS011;25866;52.420;10.640;2023-09-19T02:47:03;3.67;;;1.40;;
40150;SDS011;25866;52.420;10.640;2023-09-19T02:49:30;2.65;;;1.48;;
40150;SDS011;25866;52.420;10.640;2023-09-19T02:54:31;3.95;;;1.52;;
40150;SDS011;25866;52.420;10.640;2023-09-19T02:56:57;2.55;;;1.30;;
40150;SDS011;25866;52.420;10.640;2023-09-19T02:59:24;8.15;;;1.58;;
40150;SDS011;25866;52.420;10.640;2023-09-19T03:01:50;2.40;;;1.42;;
40150;SDS011;25866;52.420;10.640;2023-09-19T03:04:17;4.00;;;1.58;;
40150;SDS011;25866;52.420;10.640;2023-09-19T03:06:45;2.28;;;1.27;;
40150;SDS011;25866;52.420;10.640;2023-09-19T03:09:11;2.63;;;1.38;;
40150;SDS011;25866;52.420;10.640;2023-09-19T03:11:37;4.15;;;1.48;;
40150;SDS011;25866;52.420;10.640;2023-09-19T03:16:35;4.35;;;2.00;;
40150;SDS011;25866;52.420;10.640;2023-09-19T03:19:02;3.33;;;1.88;;
40150;SDS011;25866;52.420;10.640;2023-09-19T03:21:28;4.72;;;1.88;;
40150;SDS011;25866;52.420;10.640;2023-09-19T03:23:55;4.57;;;1.73;;
40150;SDS011;25866;52.420;10.640;2023-09-19T03:26:21;3.88;;;1.70;;
40150;SDS011;25866;52.420;10.640;2023-09-19T03:28:47;5.30;;;1.77;;
40150;SDS011;25866;52.420;10.640;2023-09-19T03:31:13;5.45;;;1.90;;
40150;SDS011;25866;52.420;10.640;2023-09-19T03:33:38;3.58;;;1.60;;
40150;SDS011;25866;52.420;10.640;2023-09-19T03:36:04;3.17;;;1.80;;
40150;SDS011;25866;52.420;10.640;2023-09-19T03:38:30;4.55;;;1.92;;
40150;SDS011;25866;52.420;10.640;2023-09-19T03:40:57;5.88;;;2.03;;
40150;SDS011;25866;52.420;10.640;2023-09-19T03:43:23;4.60;;;2.10;;
40150;SDS011;25866;52.420;10.640;2023-09-19T03:45:50;6.03;;;2.42;;
40150;SDS011;25866;52.420;10.640;2023-09-19T03:48:16;6.15;;;2.20;;
40150;SDS011;25866;52.420;10.640;2023-09-19T03:50:42;4.82;;;1.90;;
40150;SDS011;25866;52.420;10.640;2023-09-19T03:53:09;4.68;;;2.08;;
40150;SDS011;25866;52.420;10.640;2023-09-19T03:55:35;8.20;;;2.47;;
40150;SDS011;25866;52.420;10.640;2023-09-19T03:58:01;6.40;;;2.58;;
40150;SDS011;25866;52.420;10.640;2023-09-19T04:00:27;4.75;;;2.22;;
40150;SDS011;25866;52.420;10.640;2023-09-19T04:02:54;9.57;;;2.17;;
40150;SDS011;25866;52.420;10.640;2023-09-19T04:05:24;7.88;;;2.47;;
40150;SDS011;25866;52.420;10.640;2023-09-19T04:07:50;5.18;;;2.40;;
40150;SDS011;25866;52.420;10.640;2023-09-19T04:10:16;5.22;;;2.40;;
40150;SDS011;25866;52.420;10.640;2023-09-19T04:12:54;11.15;;;2.65;;
40150;SDS011;25866;52.420;10.640;2023-09-19T04:15:22;5.32;;;2.65;;
40150;SDS011;25866;52.420;10.640;2023-09-19T04:17:52;6.63;;;2.70;;
40150;SDS011;25866;52.420;10.640;2023-09-19T04:20:18;4.97;;;2.58;;
40150;SDS011;25866;52.420;10.640;2023-09-19T04:22:50;6.80;;;2.90;;
40150;SDS011;25866;52.420;10.640;2023-09-19T04:25:17;7.10;;;3.20;;
40150;SDS011;25866;52.420;10.640;2023-09-19T04:27:43;7.13;;;3.15;;
40150;SDS011;25866;52.420;10.640;2023-09-19T04:30:10;10.35;;;3.40;;
40150;SDS011;25866;52.420;10.640;2023-09-19T04:32:37;9.15;;;3.38;;
40150;SDS011;25866;52.420;10.640;2023-09-19T04:35:06;6.47;;;3.33;;
40150;SDS011;25866;52.420;10.640;2023-09-19T04:37:35;7.60;;;3.40;;
40150;SDS011;25866;52.420;10.640;2023-09-19T04:40:05;6.93;;;3.30;;
40150;SDS011;25866;52.420;10.640;2023-09-19T04:42:40;8.65;;;3.55;;
40150;SDS011;25866;52.420;10.640;2023-09-19T04:45:06;6.80;;;2.95;;
40150;SDS011;25866;52.420;10.640;2023-09-19T04:47:35;8.48;;;3.33;;
40150;SDS011;25866;52.420;10.640;2023-09-19T04:50:01;6.53;;;3.20;;
40150;SDS011;25866;52.420;10.640;2023-09-19T04:52:26;6.25;;;3.00;;
40150;SDS011;25866;52.420;10.640;2023-09-19T04:54:56;7.40;;;2.97;;
40150;SDS011;25866;52.420;10.640;2023-09-19T04:57:22;6.70;;;2.63;;
40150;SDS011;25866;52.420;10.640;2023-09-19T04:59:50;6.90;;;2.95;;
40150;SDS011;25866;52.420;10.640;2023-09-19T05:02:16;4.95;;;2.95;;
40150;SDS011;25866;52.420;10.640;2023-09-19T05:04:42;7.00;;;2.72;;
40150;SDS011;25866;52.420;10.640;2023-09-19T05:07:08;8.05;;;2.95;;
40150;SDS011;25866;52.420;10.640;2023-09-19T05:09:35;8.40;;;3.20;;
40150;SDS011;25866;52.420;10.640;2023-09-19T05:12:02;6.40;;;3.25;;
40150;SDS011;25866;52.420;10.640;2023-09-19T05:14:28;6.35;;;3.22;;
40150;SDS011;25866;52.420;10.640;2023-09-19T05:16:55;5.57;;;3.00;;
40150;SDS011;25866;52.420;10.640;2023-09-19T05:19:20;9.30;;;3.80;;
40150;SDS011;25866;52.420;10.640;2023-09-19T05:21:46;7.60;;;3.78;;
40150;SDS011;25866;52.420;10.640;2023-09-19T05:24:12;6.97;;;3.72;;
40150;SDS011;25866;52.420;10.640;2023-09-19T05:26:40;10.40;;;3.72;;
40150;SDS011;25866;52.420;10.640;2023-09-19T05:29:05;8.63;;;4.00;;
40150;SDS011;25866;52.420;10.640;2023-09-19T05:31:33;5.90;;;3.63;;
40150;SDS011;25866;52.420;10.640;2023-09-19T05:34:01;7.72;;;3.55;;
40150;SDS011;25866;52.420;10.640;2023-09-19T05:36:27;6.50;;;3.42;;
40150;SDS011;25866;52.420;10.640;2023-09-19T05:38:54;7.55;;;4.10;;
40150;SDS011;25866;52.420;10.640;2023-09-19T05:41:20;8.20;;;3.80;;
40150;SDS011;25866;52.420;10.640;2023-09-19T05:43:48;7.32;;;3.70;;
40150;SDS011;25866;52.420;10.640;2023-09-19T05:46:15;11.40;;;4.10;;
40150;SDS011;25866;52.420;10.640;2023-09-19T05:48:41;9.73;;;3.85;;
40150;SDS011;25866;52.420;10.640;2023-09-19T05:51:09;8.50;;;3.97;;
40150;SDS011;25866;52.420;10.640;2023-09-19T05:53:35;11.60;;;3.85;;
40150;SDS011;25866;52.420;10.640;2023-09-19T05:56:01;9.45;;;3.83;;
40150;SDS011;25866;52.420;10.640;2023-09-19T05:58:26;8.20;;;4.07;;
40150;SDS011;25866;52.420;10.640;2023-09-19T06:00:52;8.95;;;3.97;;
40150;SDS011;25866;52.420;10.640;2023-09-19T06:03:18;11.10;;;3.95;;
40150;SDS011;25866;52.420;10.640;2023-09-19T06:05:46;6.68;;;3.50;;
40150;SDS011;25866;52.420;10.640;2023-09-19T06:08:14;6.22;;;3.55;;
40150;SDS011;25866;52.420;10.640;2023-09-19T06:10:40;7.63;;;3.97;;
40150;SDS011;25866;52.420;10.640;2023-09-19T06:13:06;11.10;;;3.53;;
40150;SDS011;25866;52.420;10.640;2023-09-19T06:15:35;7.93;;;3.58;;
40150;SDS011;25866;52.420;10.640;2023-09-19T06:18:01;11.85;;;3.53;;
40150;SDS011;25866;52.420;10.640;2023-09-19T06:20:30;7.63;;;3.42;;
40150;SDS011;25866;52.420;10.640;2023-09-19T06:22:56;11.27;;;3.65;;
40150;SDS011;25866;52.420;10.640;2023-09-19T06:25:22;6.30;;;3.33;;
40150;SDS011;25866;52.420;10.640;2023-09-19T06:27:48;7.28;;;3.10;;
40150;SDS011;25866;52.420;10.640;2023-09-19T06:30:17;7.30;;;3.40;;
40150;SDS011;25866;52.420;10.640;2023-09-19T06:32:43;11.00;;;3.20;;
40150;SDS011;25866;52.420;10.640;2023-09-19T06:35:09;9.90;;;3.08;;
40150;SDS011;25866;52.420;10.640;2023-09-19T06:37:39;5.50;;;3.10;;
40150;SDS011;25866;52.420;10.640;2023-09-19T06:42:50;9.32;;;3.50;;
40150;SDS011;25866;52.420;10.640;2023-09-19T06:45:18;7.35;;;3.50;;
40150;SDS011;25866;52.420;10.640;2023-09-19T06:47:47;6.53;;;2.90;;
40150;SDS011;25866;52.420;10.640;2023-09-19T06:50:20;10.05;;;3.38;;
40150;SDS011;25866;52.420;10.640;2023-09-19T06:52:48;10.30;;;3.50;;
40150;SDS011;25866;52.420;10.640;2023-09-19T06:55:16;11.65;;;3.30;;
40150;SDS011;25866;52.420;10.640;2023-09-19T06:57:45;6.20;;;3.17;;
40150;SDS011;25866;52.420;10.640;2023-09-19T07:00:11;8.23;;;3.33;;
40150;SDS011;25866;52.420;10.640;2023-09-19T07:02:44;9.40;;;3.67;;
40150;SDS011;25866;52.420;10.640;2023-09-19T07:05:10;11.15;;;3.50;;
40150;SDS011;25866;52.420;10.640;2023-09-19T07:07:36;8.63;;;3.95;;
40150;SDS011;25866;52.420;10.640;2023-09-19T07:10:02;11.52;;;3.53;;
40150;SDS011;25866;52.420;10.640;2023-09-19T07:12:30;10.20;;;3.35;;
40150;SDS011;25866;52.420;10.640;2023-09-19T07:14:57;10.85;;;3.53;;
40150;SDS011;25866;52.420;10.640;2023-09-19T07:17:23;9.20;;;3.42;;
40150;SDS011;25866;52.420;10.640;2023-09-19T07:19:49;12.93;;;3.30;;
40150;SDS011;25866;52.420;10.640;2023-09-19T07:22:15;16.33;;;3.80;;
40150;SDS011;25866;52.420;10.640;2023-09-19T07:24:41;12.32;;;3.30;;
40150;SDS011;25866;52.420;10.640;2023-09-19T07:27:07;10.63;;;3.40;;
40150;SDS011;25866;52.420;10.640;2023-09-19T07:29:34;11.98;;;3.40;;
40150;SDS011;25866;52.420;10.640;2023-09-19T07:31:59;11.02;;;3.53;;
40150;SDS011;25866;52.420;10.640;2023-09-19T07:34:25;14.10;;;3.63;;
40150;SDS011;25866;52.420;10.640;2023-09-19T07:36:51;7.93;;;3.05;;
40150;SDS011;25866;52.420;10.640;2023-09-19T07:39:16;10.55;;;3.20;;
40150;SDS011;25866;52.420;10.640;2023-09-19T07:41:42;12.27;;;3.38;;
40150;SDS011;25866;52.420;10.640;2023-09-19T07:44:09;9.80;;;2.97;;
40150;SDS011;25866;52.420;10.640;2023-09-19T07:46:35;15.23;;;3.33;;
40150;SDS011;25866;52.420;10.640;2023-09-19T07:49:01;9.85;;;3.42;;
40150;SDS011;25866;52.420;10.640;2023-09-19T07:51:27;9.77;;;3.28;;
40150;SDS011;25866;52.420;10.640;2023-09-19T07:53:52;11.43;;;3.60;;
40150;SDS011;25866;52.420;10.640;2023-09-19T07:56:20;14.50;;;3.55;;
40150;SDS011;25866;52.420;10.640;2023-09-19T07:58:46;16.55;;;3.88;;
40150;SDS011;25866;52.420;10.640;2023-09-19T08:01:11;11.80;;;3.50;;
40150;SDS011;25866;52.420;10.640;2023-09-19T08:03:39;13.57;;;3.50;;
40150;SDS011;25866;52.420;10.640;2023-09-19T08:06:09;8.18;;;2.63;;
40150;SDS011;25866;52.420;10.640;2023-09-19T08:08:35;11.48;;;3.00;;
40150;SDS011;25866;52.420;10.640;2023-09-19T08:11:05;11.00;;;2.90;;
40150;SDS011;25866;52.420;10.640;2023-09-19T08:13:36;9.32;;;3.15;;
40150;SDS011;25866;52.420;10.640;2023-09-19T08:16:09;7.70;;;2.80;;
40150;SDS011;25866;52.420;10.640;2023-09-19T08:18:36;9.93;;;2.70;;
40150;SDS011;25866;52.420;10.640;2023-09-19T08:21:05;8.15;;;2.00;;
40150;SDS011;25866;52.420;10.640;2023-09-19T08:23:33;10.30;;;2.60;;
40150;SDS011;25866;52.420;10.640;2023-09-19T08:25:59;9.52;;;2.03;;
40150;SDS011;25866;52.420;10.640;2023-09-19T08:28:27;10.75;;;2.25;;
40150;SDS011;25866;52.420;10.640;2023-09-19T08:30:54;12.25;;;2.63;;
40150;SDS011;25866;52.420;10.640;2023-09-19T08:33:20;12.90;;;2.30;;
40150;SDS011;25866;52.420;10.640;2023-09-19T08:35:46;7.57;;;2.13;;
40150;SDS011;25866;52.420;10.640;2023-09-19T08:38:12;10.02;;;2.50;;
40150;SDS011;25866;52.420;10.640;2023-09-19T08:40:39;11.13;;;2.30;;
40150;SDS011;25866;52.420;10.640;2023-09-19T08:43:07;9.55;;;2.30;;
40150;SDS011;25866;52.420;10.640;2023-09-19T08:45:33;7.28;;;2.00;;
40150;SDS011;25866;52.420;10.640;2023-09-19T08:48:11;7.47;;;2.20;;
40150;SDS011;25866;52.420;10.640;2023-09-19T08:51:03;8.80;;;2.08;;
40150;SDS011;25866;52.420;10.640;2023-09-19T08:53:42;9.75;;;2.15;;
40150;SDS011;25866;52.420;10.640;2023-09-19T08:56:16;8.73;;;2.38;;
40150;SDS011;25866;52.420;10.640;2023-09-19T08:58:45;7.15;;;2.03;;
40150;SDS011;25866;52.420;10.640;2023-09-19T09:01:18;9.23;;;2.15;;
40150;SDS011;25866;52.420;10.640;2023-09-19T09:03:53;8.57;;;1.98;;
40150;SDS011;25866;52.420;10.640;2023-09-19T09:06:20;10.45;;;2.20;;
40150;SDS011;25866;52.420;10.640;2023-09-19T09:08:47;8.48;;;2.30;;
40150;SDS011;25866;52.420;10.640;2023-09-19T09:11:13;11.35;;;2.45;;
40150;SDS011;25866;52.420;10.640;2023-09-19T09:13:40;11.60;;;2.10;;
40150;SDS011;25866;52.420;10.640;2023-09-19T09:16:07;8.23;;;2.42;;
40150;SDS011;25866;52.420;10.640;2023-09-19T09:18:36;6.72;;;2.00;;
40150;SDS011;25866;52.420;10.640;2023-09-19T09:21:02;10.38;;;2.05;;
40150;SDS011;25866;52.420;10.640;2023-09-19T09:23:29;9.38;;;2.08;;
40150;SDS011;25866;52.420;10.640;2023-09-19T09:25:58;9.98;;;2.20;;
40150;SDS011;25866;52.420;10.640;2023-09-19T09:28:28;7.88;;;1.92;;
40150;SDS011;25866;52.420;10.640;2023-09-19T09:30:55;11.95;;;2.38;;
40150;SDS011;25866;52.420;10.640;2023-09-19T09:33:33;10.05;;;2.60;;
40150;SDS011;25866;52.420;10.640;2023-09-19T09:35:59;12.43;;;2.33;;
40150;SDS011;25866;52.420;10.640;2023-09-19T09:38:28;9.57;;;2.00;;
40150;SDS011;25866;52.420;10.640;2023-09-19T09:41:08;6.90;;;1.73;;
40150;SDS011;25866;52.420;10.640;2023-09-19T09:43:35;4.32;;;1.73;;
40150;SDS011;25866;52.420;10.640;2023-09-19T09:46:13;10.07;;;2.05;;
40150;SDS011;25866;52.420;10.640;2023-09-19T09:51:39;10.32;;;2.08;;
40150;SDS011;25866;52.420;10.640;2023-09-19T09:54:11;7.03;;;1.70;;
40150;SDS011;25866;52.420;10.640;2023-09-19T09:56:57;6.22;;;1.88;;
40150;SDS011;25866;52.420;10.640;2023-09-19T09:59:51;8.05;;;1.90;;
40150;SDS011;25866;52.420;10.640;2023-09-19T10:02:38;6.07;;;1.58;;
40150;SDS011;25866;52.420;10.640;2023-09-19T10:05:13;8.27;;;1.75;;
40150;SDS011;25866;52.420;10.640;2023-09-19T10:07:53;8.50;;;1.73;;
40150;SDS011;25866;52.420;10.640;2023-09-19T10:10:36;6.80;;;1.48;;
40150;SDS011;25866;52.420;10.640;2023-09-19T10:13:06;7.07;;;1.95;;
40150;SDS011;25866;52.420;10.640;2023-09-19T10:15:33;6.50;;;1.67;;
40150;SDS011;25866;52.420;10.640;2023-09-19T10:18:01;6.88;;;1.70;;
40150;SDS011;25866;52.420;10.640;2023-09-19T10:20:30;6.63;;;1.98;;
40150;SDS011;25866;52.420;10.640;2023-09-19T10:23:06;9.10;;;1.98;;
40150;SDS011;25866;52.420;10.640;2023-09-19T10:25:38;9.07;;;1.80;;
40150;SDS011;25866;52.420;10.640;2023-09-19T10:28:11;8.48;;;1.70;;
40150;SDS011;25866;52.420;10.640;2023-09-19T10:30:45;6.35;;;2.00;;
40150;SDS011;25866;52.420;10.640;2023-09-19T10:33:16;4.68;;;1.80;;
40150;SDS011;25866;52.420;10.640;2023-09-19T10:35:45;8.90;;;1.75;;
40150;SDS011;25866;52.420;10.640;2023-09-19T10:38:13;11.40;;;2.17;;
40150;SDS011;25866;52.420;10.640;2023-09-19T10:40:44;3.97;;;1.77;;
40150;SDS011;25866;52.420;10.640;2023-09-19T10:43:13;5.90;;;1.60;;
40150;SDS011;25866;52.420;10.640;2023-09-19T10:45:43;7.97;;;1.90;;
40150;SDS011;25866;52.420;10.640;2023-09-19T10:48:10;5.47;;;1.85;;
40150;SDS011;25866;52.420;10.640;2023-09-19T10:50:41;8.85;;;1.77;;
40150;SDS011;25866;52.420;10.640;2023-09-19T10:53:29;6.97;;;1.75;;
40150;SDS011;25866;52.420;10.640;2023-09-19T10:56:07;9.80;;;2.05;;
40150;SDS011;25866;52.420;10.640;2023-09-19T10:58:42;8.48;;;1.52;;
40150;SDS011;25866;52.420;10.640;2023-09-19T11:01:10;7.85;;;1.88;;
40150;SDS011;25866;52.420;10.640;2023-09-19T11:03:40;5.68;;;2.05;;
40150;SDS011;25866;52.420;10.640;2023-09-19T11:06:16;6.32;;;1.90;;
40150;SDS011;25866;52.420;10.640;2023-09-19T11:09:03;6.82;;;1.90;;
40150;SDS011;25866;52.420;10.640;2023-09-19T11:11:50;8.00;;;1.88;;
40150;SDS011;25866;52.420;10.640;2023-09-19T11:30:43;7.43;;;1.88;;
40150;SDS011;25866;52.420;10.640;2023-09-19T11:36:08;7.10;;;2.30;;
40150;SDS011;25866;52.420;10.640;2023-09-19T11:43:51;7.03;;;1.75;;
40150;SDS011;25866;52.420;10.640;2023-09-19T11:46:17;10.35;;;1.85;;
40150;SDS011;25866;52.420;10.640;2023-09-19T11:48:49;9.57;;;2.28;;
40150;SDS011;25866;52.420;10.640;2023-09-19T11:51:17;10.18;;;2.13;;
40150;SDS011;25866;52.420;10.640;2023-09-19T11:53:48;8.70;;;2.03;;
40150;SDS011;25866;52.420;10.640;2023-09-19T11:56:18;7.93;;;2.03;;
40150;SDS011;25866;52.420;10.640;2023-09-19T11:58:52;6.18;;;2.00;;
40150;SDS011;25866;52.420;10.640;2023-09-19T12:01:24;7.38;;;1.77;;
40150;SDS011;25866;52.420;10.640;2023-09-19T12:03:55;6.70;;;1.85;;
40150;SDS011;25866;52.420;10.640;2023-09-19T12:06:25;7.40;;;2.13;;
40150;SDS011;25866;52.420;10.640;2023-09-19T12:08:52;5.53;;;1.70;;
40150;SDS011;25866;52.420;10.640;2023-09-19T12:11:22;8.25;;;1.77;;
40150;SDS011;25866;52.420;10.640;2023-09-19T12:13:50;5.00;;;1.80;;
40150;SDS011;25866;52.420;10.640;2023-09-19T12:16:18;7.07;;;2.15;;
40150;SDS011;25866;52.420;10.640;2023-09-19T12:18:48;6.88;;;2.15;;
40150;SDS011;25866;52.420;10.640;2023-09-19T12:21:25;9.93;;;2.70;;
40150;SDS011;25866;52.420;10.640;2023-09-19T12:26:41;8.80;;;2.67;;
40150;SDS011;25866;52.420;10.640;2023-09-19T12:29:16;7.53;;;2.05;;
40150;SDS011;25866;52.420;10.640;2023-09-19T12:34:29;8.07;;;2.67;;
40150;SDS011;25866;52.420;10.640;2023-09-19T12:37:14;5.88;;;1.92;;
40150;SDS011;25866;52.420;10.640;2023-09-19T12:39:46;8.90;;;1.92;;
40150;SDS011;25866;52.420;10.640;2023-09-19T12:42:16;6.20;;;1.88;;
40150;SDS011;25866;52.420;10.640;2023-09-19T12:44:45;7.65;;;2.22;;
40150;SDS011;25866;52.420;10.640;2023-09-19T12:47:13;7.00;;;2.08;;
40150;SDS011;25866;52.420;10.640;2023-09-19T12:50:21;7.43;;;2.33;;
40150;SDS011;25866;52.420;10.640;2023-09-19T12:55:20;7.95;;;2.25;;
40150;SDS011;25866;52.420;10.640;2023-09-19T12:58:01;6.90;;;2.28;;
40150;SDS011;25866;52.420;10.640;2023-09-19T13:00:38;5.70;;;1.83;;
40150;SDS011;25866;52.420;10.640;2023-09-19T13:03:17;7.38;;;2.55;;
40150;SDS011;25866;52.420;10.640;2023-09-19T13:06:00;5.45;;;1.80;;
40150;SDS011;25866;52.420;10.640;2023-09-19T13:08:34;8.50;;;2.30;;
40150;SDS011;25866;52.420;10.640;2023-09-19T13:11:07;8.10;;;2.28;;
40150;SDS011;25866;52.420;10.640;2023-09-19T13:16:14;7.93;;;2.05;;
40150;SDS011;25866;52.420;10.640;2023-09-19T13:18:48;5.53;;;1.90;;
40150;SDS011;25866;52.420;10.640;2023-09-19T13:21:28;7.15;;;2.35;;
40150;SDS011;25866;52.420;10.640;2023-09-19T13:26:48;8.45;;;2.47;;
40150;SDS011;25866;52.420;10.640;2023-09-19T13:29:14;6.90;;;1.92;;
40150;SDS011;25866;52.420;10.640;2023-09-19T13:31:52;9.25;;;2.15;;
40150;SDS011;25866;52.420;10.640;2023-09-19T13:34:18;7.38;;;2.20;;
40150;SDS011;25866;52.420;10.640;2023-09-19T13:36:45;6.57;;;1.73;;
40150;SDS011;25866;52.420;10.640;2023-09-19T13:39:17;8.10;;;2.03;;
40150;SDS011;25866;52.420;10.640;2023-09-19T13:41:47;10.05;;;2.35;;
40150;SDS011;25866;52.420;10.640;2023-09-19T13:44:13;7.28;;;2.30;;
40150;SDS011;25866;52.420;10.640;2023-09-19T13:46:39;6.65;;;2.38;;
40150;SDS011;25866;52.420;10.640;2023-09-19T13:49:05;6.88;;;2.42;;
40150;SDS011;25866;52.420;10.640;2023-09-19T13:51:31;8.15;;;2.22;;
40150;SDS011;25866;52.420;10.640;2023-09-19T13:53:57;6.00;;;2.10;;
40150;SDS011;25866;52.420;10.640;2023-09-19T13:56:24;7.75;;;2.35;;
40150;SDS011;25866;52.420;10.640;2023-09-19T13:58:53;7.82;;;2.42;;
40150;SDS011;25866;52.420;10.640;2023-09-19T14:01:19;8.20;;;2.33;;
40150;SDS011;25866;52.420;10.640;2023-09-19T14:03:45;5.10;;;2.20;;
40150;SDS011;25866;52.420;10.640;2023-09-19T14:06:15;6.90;;;2.20;;
40150;SDS011;25866;52.420;10.640;2023-09-19T14:08:42;7.95;;;2.38;;
40150;SDS011;25866;52.420;10.640;2023-09-19T14:11:09;5.82;;;2.15;;
40150;SDS011;25866;52.420;10.640;2023-09-19T14:13:35;8.18;;;2.53;;
40150;SDS011;25866;52.420;10.640;2023-09-19T14:16:05;9.60;;;2.22;;
40150;SDS011;25866;52.420;10.640;2023-09-19T14:18:32;7.05;;;2.38;;
40150;SDS011;25866;52.420;10.640;2023-09-19T14:20:58;5.82;;;2.03;;
40150;SDS011;25866;52.420;10.640;2023-09-19T14:23:28;7.32;;;2.50;;
40150;SDS011;25866;52.420;10.640;2023-09-19T14:26:00;6.90;;;2.13;;
40150;SDS011;25866;52.420;10.640;2023-09-19T14:28:26;7.07;;;2.22;;
40150;SDS011;25866;52.420;10.640;2023-09-19T14:30:53;5.70;;;2.15;;
40150;SDS011;25866;52.420;10.640;2023-09-19T14:33:18;7.50;;;2.45;;
40150;SDS011;25866;52.420;10.640;2023-09-19T14:35:44;7.95;;;2.40;;
40150;SDS011;25866;52.420;10.640;2023-09-19T14:38:10;4.45;;;1.83;;
40150;SDS011;25866;52.420;10.640;2023-09-19T14:40:36;6.82;;;2.10;;
40150;SDS011;25866;52.420;10.640;2023-09-19T14:43:02;7.15;;;2.20;;
40150;SDS011;25866;52.420;10.640;2023-09-19T14:45:28;11.27;;;2.28;;
40150;SDS011;25866;52.420;10.640;2023-09-19T14:47:56;5.97;;;2.20;;
40150;SDS011;25866;52.420;10.640;2023-09-19T14:50:22;6.35;;;2.30;;
40150;SDS011;25866;52.420;10.640;2023-09-19T14:52:48;6.38;;;2.05;;
40150;SDS011;25866;52.420;10.640;2023-09-19T14:55:16;7.07;;;2.22;;
40150;SDS011;25866;52.420;10.640;2023-09-19T14:57:42;6.05;;;2.00;;
40150;SDS011;25866;52.420;10.640;2023-09-19T15:00:12;6.88;;;2.20;;
40150;SDS011;25866;52.420;10.640;2023-09-19T15:02:39;10.80;;;2.40;;
40150;SDS011;25866;52.420;10.640;2023-09-19T15:05:06;7.88;;;2.28;;
40150;SDS011;25866;52.420;10.640;2023-09-19T15:07:34;8.65;;;2.20;;
40150;SDS011;25866;52.420;10.640;2023-09-19T15:10:02;7.97;;;2.22;;
40150;SDS011;25866;52.420;10.640;2023-09-19T15:12:28;7.70;;;2.50;;
40150;SDS011;25866;52.420;10.640;2023-09-19T15:14:54;7.93;;;2.40;;
40150;SDS011;25866;52.420;10.640;2023-09-19T15:17:20;7.00;;;2.53;;
40150;SDS011;25866;52.420;10.640;2023-09-19T15:19:46;6.38;;;2.20;;
40150;SDS011;25866;52.420;10.640;2023-09-19T15:22:11;7.38;;;2.22;;
40150;SDS011;25866;52.420;10.640;2023-09-19T15:24:38;6.22;;;2.10;;
40150;SDS011;25866;52.420;10.640;2023-09-19T15:27:04;7.35;;;2.42;;
40150;SDS011;25866;52.420;10.640;2023-09-19T15:29:29;6.32;;;2.10;;
40150;SDS011;25866;52.420;10.640;2023-09-19T15:31:55;9.15;;;2.30;;
40150;SDS011;25866;52.420;10.640;2023-09-19T15:34:27;9.27;;;2.38;;
40150;SDS011;25866;52.420;10.640;2023-09-19T15:36:54;6.70;;;2.20;;
40150;SDS011;25866;52.420;10.640;2023-09-19T15:39:19;4.82;;;1.80;;
40150;SDS011;25866;52.420;10.640;2023-09-19T15:41:47;8.65;;;2.28;;
40150;SDS011;25866;52.420;10.640;2023-09-19T15:44:19;5.78;;;2.00;;
40150;SDS011;25866;52.420;10.640;2023-09-19T15:46:45;7.38;;;2.22;;
40150;SDS011;25866;52.420;10.640;2023-09-19T15:49:11;7.43;;;2.25;;
40150;SDS011;25866;52.420;10.640;2023-09-19T15:51:38;7.63;;;2.20;;